Time;durP1;ratioP1;P1;durP2;ratioP2;P2;SDS_P1;SDS_P2;PMS_P1;PMS_P2;Temp;Humidity;BMP_temperature;BMP_pressure;BME280_temperature;BME280_humidity;BME280_pressure;Samples;Min_cycle;Max_cycle;Signal;HPM_P1;HPM_P2
2023/08/21 00:03:33;;;;;;;10.04;8.98;;;;;;;23.24;100.00;101249.27;5199983;55;1142954;-67
2023/08/21 00:08:39;;;;;;;9.33;8.43;;;;;;;23.16;100.00;101260.98;5188191;54;1142894;-67
2023/08/21 00:13:47;;;;;;;9.28;8.38;;;;;;;23.22;100.00;101250.79;5265299;54;1140752;-67
2023/08/21 00:18:52;;;;;;;11.57;7.72;;;;;;;23.25;100.00;101260.39;5258060;54;1140835;-67
2023/08/21 00:23:57;;;;;;;9.15;8.08;;;;;;;23.34;100.00;101252.05;5257144;54;1142835;-66
2023/08/21 00:29:03;;;;;;;9.65;7.70;;;;;;;23.48;100.00;101251.73;5258367;54;1140723;-67
2023/08/21 00:34:10;;;;;;;6.80;6.17;;;;;;;23.50;100.00;101267.23;5260692;54;1140898;-67
2023/08/21 00:39:16;;;;;;;7.65;6.95;;;;;;;23.49;100.00;101265.05;5258260;54;1140410;-67
2023/08/21 00:44:21;;;;;;;8.95;6.37;;;;;;;23.44;100.00;101266.61;5109409;56;1140795;-67
2023/08/21 00:49:28;;;;;;;8.75;6.60;;;;;;;23.37;100.00;101268.39;5278896;54;1140577;-66
2023/08/21 00:54:34;;;;;;;9.53;7.17;;;;;;;23.13;100.00;101274.84;5258519;54;1140699;-67
2023/08/21 00:59:40;;;;;;;7.67;6.92;;;;;;;22.97;100.00;101274.98;5113489;55;1140993;-66
2023/08/21 01:04:46;;;;;;;7.15;6.45;;;;;;;22.89;100.00;101277.25;5254681;54;1140821;-67
2023/08/21 01:10:05;;;;;;;12.58;7.65;;;;;;;22.87;100.00;101286.54;5175807;55;1140583;-66
2023/08/21 01:15:11;;;;;;;7.87;7.08;;;;;;;22.75;100.00;101293.67;5258177;54;1142755;-66
2023/08/21 01:20:17;;;;;;;7.27;6.63;;;;;;;22.61;100.00;101307.91;5256930;54;1140732;-66
2023/08/21 01:25:23;;;;;;;7.37;6.22;;;;;;;22.39;100.00;101304.17;5278751;54;1140768;-67
2023/08/21 01:30:32;;;;;;;12.88;6.50;;;;;;;22.28;100.00;101288.91;5257126;54;1140876;-67
2023/08/21 01:35:38;;;;;;;8.30;5.85;;;;;;;22.27;100.00;101275.11;5113064;56;1142830;-67
2023/08/21 01:40:44;;;;;;;8.93;6.70;;;;;;;22.39;100.00;101285.30;5279069;54;1141246;-66
2023/08/21 01:45:49;;;;;;;9.70;6.35;;;;;;;22.50;100.00;101273.77;5177489;55;1140608;-66
2023/08/21 01:50:55;;;;;;;8.38;6.20;;;;;;;22.56;100.00;101260.94;4960928;57;1140884;-67
2023/08/21 01:56:01;;;;;;;5.87;5.35;;;;;;;22.43;100.00;101265.07;4988537;57;1141006;-67
2023/08/21 02:01:06;;;;;;;9.10;6.37;;;;;;;22.19;100.00;101254.92;5073321;56;1140970;-66
2023/08/21 02:06:12;;;;;;;7.70;6.03;;;;;;;22.09;100.00;101258.69;5049828;56;1140881;-67
2023/08/21 02:11:18;;;;;;;6.55;5.53;;;;;;;22.14;100.00;101256.82;5145195;56;1140884;-66
2023/08/21 02:16:24;;;;;;;8.78;6.47;;;;;;;22.24;100.00;101260.13;5164999;55;1141027;-67
2023/08/21 02:21:30;;;;;;;6.60;5.92;;;;;;;22.37;100.00;101258.19;5120186;55;1140839;-67
2023/08/21 02:26:36;;;;;;;7.70;6.28;;;;;;;22.32;100.00;101270.00;5098050;56;1140639;-66
2023/08/21 02:31:42;;;;;;;5.33;4.92;;;;;;;22.21;100.00;101252.89;5078595;56;1140834;-67
2023/08/21 02:36:47;;;;;;;10.05;5.50;;;;;;;22.06;100.00;101260.37;5079299;56;1140901;-66
2023/08/21 02:41:53;;;;;;;11.75;6.30;;;;;;;21.91;100.00;101263.44;5089194;56;1142900;-67
2023/08/21 02:46:59;;;;;;;6.38;5.78;;;;;;;21.84;100.00;101258.44;4996582;55;1143280;-68
2023/08/21 02:52:05;;;;;;;9.35;5.70;;;;;;;21.87;100.00;101256.72;4996831;56;1141080;-67
2023/08/21 02:57:11;;;;;;;8.03;5.20;;;;;;;21.60;100.00;101266.58;4996840;56;1140944;-66
2023/08/21 03:02:17;;;;;;;8.30;4.90;;;;;;;21.31;100.00;101267.98;5016531;56;1140914;-67
2023/08/21 03:07:22;;;;;;;9.48;5.40;;;;;;;21.13;100.00;101274.02;4996361;56;1140641;-66
2023/08/21 03:12:28;;;;;;;9.13;5.87;;;;;;;21.25;100.00;101268.66;5043195;56;1140888;-66
2023/08/21 03:17:34;;;;;;;9.98;6.12;;;;;;;21.43;100.00;101272.50;5098330;56;1140776;-66
2023/08/21 03:22:39;;;;;;;6.08;5.45;;;;;;;21.53;100.00;101273.17;5084422;55;1140593;-66
2023/08/21 03:27:49;;;;;;;7.83;5.05;;;;;;;21.65;100.00;101280.38;5256584;54;1140668;-66
2023/08/21 03:32:52;;;;;;;15.60;7.22;;;;;;;21.73;100.00;101283.87;5264160;54;1140784;-66
2023/08/21 03:37:58;;;;;;;12.75;6.37;;;;;;;21.74;100.00;101275.28;5168649;55;1166419;-67
2023/08/21 03:43:05;;;;;;;7.42;5.92;;;;;;;21.62;100.00;101272.13;5177398;55;1143118;-66
2023/08/21 03:48:10;;;;;;;10.60;6.30;;;;;;;21.41;100.00;101278.05;5201020;55;1140650;-66
2023/08/21 03:53:16;;;;;;;6.62;5.95;;;;;;;21.30;100.00;101280.27;5214106;55;1143041;-66
2023/08/21 03:58:22;;;;;;;12.93;6.97;;;;;;;21.35;100.00;101279.27;5244878;55;1140984;-67
2023/08/21 04:03:28;;;;;;;9.13;7.22;;;;;;;21.28;100.00;101281.78;5029356;57;1143072;-66
2023/08/21 04:08:33;;;;;;;10.28;7.00;;;;;;;21.22;100.00;101281.64;5188642;55;1140641;-66
2023/08/21 04:13:39;;;;;;;11.15;6.70;;;;;;;21.24;100.00;101282.28;5215876;54;1142972;-66
2023/08/21 04:18:45;;;;;;;12.85;7.78;;;;;;;21.18;100.00;101290.51;5060861;56;1142661;-67
2023/08/21 04:23:50;;;;;;;7.80;6.87;;;;;;;21.16;100.00;101286.30;5260732;55;1142916;-66
2023/08/21 04:28:56;;;;;;;7.55;6.70;;;;;;;21.13;100.00;101287.98;5169592;55;1140707;-66
2023/08/21 04:34:02;;;;;;;11.12;7.40;;;;;;;21.08;100.00;101294.70;5156093;55;1141037;-67
2023/08/21 04:39:09;;;;;;;14.98;7.87;;;;;;;21.11;100.00;101295.38;5233909;54;1143039;-66
2023/08/21 04:44:15;;;;;;;9.08;7.40;;;;;;;21.15;100.00;101300.26;5245360;54;1142916;-66
2023/08/21 04:49:21;;;;;;;10.25;8.15;;;;;;;21.19;100.00;101298.95;5241845;54;1140917;-66
2023/08/21 04:54:26;;;;;;;8.40;7.03;;;;;;;21.22;100.00;101306.69;5168222;55;1142834;-66
2023/08/21 04:59:32;;;;;;;13.13;7.33;;;;;;;21.10;100.00;101302.59;5190094;55;1140946;-66
2023/08/21 05:04:38;;;;;;;7.95;6.92;;;;;;;20.87;100.00;101296.22;5170792;54;1142978;-66
2023/08/21 05:09:44;;;;;;;11.33;7.47;;;;;;;20.68;100.00;101300.05;5170909;55;1140967;-66
2023/08/21 05:14:51;;;;;;;8.73;7.65;;;;;;;20.53;100.00;101302.55;5195675;54;1171404;-66
2023/08/21 05:19:57;;;;;;;9.10;7.05;;;;;;;20.60;100.00;101295.52;5167656;55;1217304;-66
2023/08/21 05:25:04;;;;;;;7.05;6.35;;;;;;;20.71;100.00;101289.82;5208021;54;1141055;-66
2023/08/21 05:30:12;;;;;;;9.78;6.42;;;;;;;20.89;100.00;101292.36;5169687;55;1140671;-67
2023/08/21 05:35:17;;;;;;;11.25;6.30;;;;;;;21.04;100.00;101291.19;5142885;55;1141138;-66
2023/08/21 05:40:23;;;;;;;12.35;6.15;;;;;;;21.28;100.00;101308.69;5257888;54;1142893;-66
2023/08/21 05:45:29;;;;;;;11.80;6.62;;;;;;;21.52;100.00;101310.52;5211283;54;1142929;-67
2023/08/21 05:50:36;;;;;;;8.80;5.92;;;;;;;21.75;100.00;101324.09;5165287;56;1142918;-67
2023/08/21 05:55:42;;;;;;;8.28;5.55;;;;;;;22.05;100.00;101321.16;5213374;54;1179788;-67
2023/08/21 06:00:49;;;;;;;7.97;4.35;;;;;;;22.30;100.00;101316.53;5255607;54;1244698;-66
2023/08/21 06:05:54;;;;;;;9.90;4.35;;;;;;;22.37;100.00;101325.06;5225287;55;1141022;-66
2023/08/21 06:11:00;;;;;;;9.77;4.90;;;;;;;22.32;100.00;101332.83;5251474;54;1140477;-66
2023/08/21 06:16:06;;;;;;;10.45;5.22;;;;;;;22.25;100.00;101344.50;5111779;55;1248783;-68
2023/08/21 06:21:13;;;;;;;7.97;5.10;;;;;;;22.23;100.00;101330.36;5254609;54;1249860;-67
2023/08/21 06:26:19;;;;;;;5.60;4.03;;;;;;;22.16;100.00;101313.20;5131614;56;1242433;-66
2023/08/21 06:31:28;;;;;;;10.82;4.60;;;;;;;22.32;100.00;101327.95;5176733;55;1239477;-66
2023/08/21 06:36:34;;;;;;;8.95;4.70;;;;;;;22.52;100.00;101351.28;5148997;55;1233783;-66
2023/08/21 06:41:40;;;;;;;6.30;4.10;;;;;;;22.89;100.00;101346.04;5215176;54;1141522;-66
2023/08/21 06:46:45;;;;;;;4.50;3.33;;;;;;;22.89;100.00;101346.04;5182984;55;1248633;-66
2023/08/21 06:51:52;;;;;;;7.58;3.05;;;;;;;22.96;100.00;101340.23;5190480;54;1250418;-66
2023/08/21 06:56:58;;;;;;;5.70;3.62;;;;;;;22.94;100.00;101348.17;5207106;54;1239162;-66
2023/08/21 07:02:07;;;;;;;7.22;3.95;;;;;;;23.06;100.00;101340.02;5066368;54;1254570;-68
2023/08/21 07:07:13;;;;;;;6.77;4.40;;;;;;;23.28;100.00;101346.41;5097610;56;1257575;-67
2023/08/21 07:12:18;;;;;;;5.92;3.85;;;;;;;23.64;100.00;101350.16;5128519;56;1256286;-67
2023/08/21 07:17:24;;;;;;;6.25;3.27;;;;;;;23.91;100.00;101352.73;5168412;54;1259090;-66
2023/08/21 07:22:30;;;;;;;8.80;3.70;;;;;;;24.08;100.00;101346.13;5164619;55;1253052;-67
2023/08/21 07:27:36;;;;;;;4.35;3.05;;;;;;;24.13;100.00;101321.25;5190574;55;1141027;-66
2023/08/21 07:32:41;;;;;;;5.75;3.00;;;;;;;24.30;100.00;101320.02;5159146;55;1246700;-66
2023/08/21 07:37:48;;;;;;;6.72;3.27;;;;;;;24.44;100.00;101338.63;5152231;55;1180080;-66
2023/08/21 07:42:53;;;;;;;9.23;3.60;;;;;;;24.54;99.75;101337.80;5045169;56;1140861;-67
2023/08/21 07:47:59;;;;;;;6.90;3.40;;;;;;;24.71;97.21;101346.52;5051920;56;1138850;-66
2023/08/21 07:53:04;;;;;;;6.33;3.50;;;;;;;24.76;96.71;101340.84;5034354;56;1138764;-68
2023/08/21 07:58:10;;;;;;;8.10;3.77;;;;;;;24.98;98.89;101338.19;5065198;55;1138934;-67
2023/08/21 08:03:17;;;;;;;6.35;3.20;;;;;;;25.13;95.19;101326.78;5058722;55;1138566;-68
2023/08/21 08:08:24;;;;;;;4.60;2.93;;;;;;;25.32;97.14;101327.47;5026675;56;1196586;-68
2023/08/21 08:13:30;;;;;;;9.00;3.70;;;;;;;25.43;94.78;101335.57;5066645;54;1139058;-68
2023/08/21 08:18:35;;;;;;;5.17;3.02;;;;;;;25.53;94.40;101342.83;5112133;55;1242209;-68
2023/08/21 08:23:41;;;;;;;7.58;3.08;;;;;;;25.41;91.77;101341.69;5034710;55;1169246;-67
2023/08/21 08:28:47;;;;;;;9.45;3.50;;;;;;;25.48;91.32;101335.83;5065908;56;1138892;-67
2023/08/21 08:33:53;;;;;;;5.78;3.22;;;;;;;25.33;90.97;101339.14;5096326;55;1138938;-67
2023/08/21 08:38:59;;;;;;;4.92;2.75;;;;;;;25.17;89.99;101345.67;5038020;55;1138878;-67
2023/08/21 08:44:08;;;;;;;6.53;2.92;;;;;;;25.14;89.50;101344.70;4981529;55;1139147;-68
2023/08/21 08:49:15;;;;;;;4.78;3.17;;;;;;;25.02;89.58;101340.84;5051159;55;1140466;-68
2023/08/21 08:54:26;;;;;;;7.65;3.02;;;;;;;24.99;87.44;101335.81;4964262;57;1138865;-67
2023/08/21 08:59:34;;;;;;;5.00;2.80;;;;;;;24.95;88.66;101335.34;4946315;58;1138882;-67
2023/08/21 09:04:39;;;;;;;6.08;3.02;;;;;;;25.23;87.70;101334.04;4986141;57;1138784;-67
2023/08/21 09:09:52;;;;;;;8.28;3.20;;;;;;;25.23;84.80;101329.47;5007867;56;1138848;-70
2023/08/21 09:15:23;;;;;;;4.78;2.60;;;;;;;25.19;85.04;101332.78;4952519;57;1139230;-68
2023/08/21 09:20:30;;;;;;;4.28;2.67;;;;;;;25.17;87.04;101322.66;4996044;57;1139056;-69
2023/08/21 09:25:40;;;;;;;6.12;2.65;;;;;;;25.34;87.02;101329.98;4957544;57;1138687;-67
2023/08/21 09:30:52;;;;;;;3.00;2.40;;;;;;;25.61;86.63;101321.53;5102909;56;1138684;-68
2023/08/21 09:35:57;;;;;;;;;;;;;;;25.70;86.59;101329.85;5130755;55;1138626;-67
2023/08/21 09:41:03;;;;;;;4.05;2.92;;;;;;;25.88;85.04;101325.59;5283471;54;976009;-67
2023/08/21 09:46:09;;;;;;;5.50;2.90;;;;;;;25.85;83.34;101326.51;5229536;54;1136805;-69
2023/08/21 09:51:14;;;;;;;5.67;2.10;;;;;;;26.07;83.98;101319.97;5232105;55;1138769;-67
2023/08/21 09:56:21;;;;;;;3.37;2.08;;;;;;;26.40;87.98;101315.25;5213238;55;1138971;-68
2023/08/21 10:01:26;;;;;;;8.23;2.47;;;;;;;26.30;80.44;101310.19;5213495;54;1138897;-66
2023/08/21 10:06:32;;;;;;;2.55;2.12;;;;;;;26.39;80.26;101319.00;5229710;55;1138911;-68
2023/08/21 10:11:40;;;;;;;7.47;2.90;;;;;;;26.49;79.80;101309.42;5188515;55;1138617;-66
2023/08/21 10:16:46;;;;;;;5.50;2.10;;;;;;;26.66;78.98;101306.34;5070346;56;1138824;-67
2023/08/21 10:21:51;;;;;;;5.08;2.25;;;;;;;26.78;78.76;101301.45;5220420;54;1138650;-67
2023/08/21 10:27:01;;;;;;;7.25;2.60;;;;;;;26.72;79.17;101300.10;5075977;55;1138681;-67
2023/08/21 10:32:07;;;;;;;3.42;2.33;;;;;;;27.00;78.85;101313.53;5111578;56;1138625;-65
2023/08/21 10:37:13;;;;;;;5.03;2.77;;;;;;;27.21;79.21;101310.08;5135153;55;1138793;-65
2023/08/21 10:42:19;;;;;;;6.50;2.20;;;;;;;27.54;79.44;101305.15;5204790;55;1138880;-65
2023/08/21 10:47:34;;;;;;;3.45;2.10;;;;;;;27.76;75.71;101307.98;5264624;54;1138992;-66
2023/08/21 10:52:44;;;;;;;5.97;2.08;;;;;;;27.76;75.40;101303.90;5217252;54;1138746;-66
2023/08/21 10:57:51;;;;;;;3.50;2.22;;;;;;;27.85;75.49;101299.89;5160073;55;1138657;-66
2023/08/21 11:02:57;;;;;;;5.22;1.65;;;;;;;27.86;75.70;101295.28;5191881;55;1138733;-65
2023/08/21 11:08:03;;;;;;;4.80;2.45;;;;;;;28.08;76.42;101279.02;5175323;55;1138875;-66
2023/08/21 11:13:09;;;;;;;2.55;2.30;;;;;;;28.26;73.89;101276.42;5199506;55;1138818;-67
2023/08/21 11:18:14;;;;;;;2.50;2.00;;;;;;;28.30;71.68;101274.11;5216467;54;1138648;-66
2023/08/21 11:23:20;;;;;;;6.17;2.22;;;;;;;28.20;70.84;101277.31;5192912;54;1138574;-68
2023/08/21 11:28:26;;;;;;;8.55;2.42;;;;;;;28.18;69.11;101275.30;5278592;54;1138642;-67
2023/08/21 11:33:32;;;;;;;3.55;1.85;;;;;;;28.00;70.75;101277.87;5246859;55;1138692;-66
2023/08/21 11:38:38;;;;;;;6.83;2.80;;;;;;;28.14;70.40;101274.05;5202712;55;1138784;-66
2023/08/21 11:43:44;;;;;;;3.62;2.22;;;;;;;28.31;69.05;101264.37;5253468;55;1138994;-66
2023/08/21 11:48:50;;;;;;;4.60;2.00;;;;;;;28.35;69.00;101254.73;5210248;55;1138601;-67
2023/08/21 11:53:55;;;;;;;4.65;2.47;;;;;;;28.41;70.17;101261.73;5193806;55;1139115;-67
2023/08/21 11:59:03;;;;;;;3.75;2.20;;;;;;;28.28;69.61;101258.53;5223621;54;1139077;-66
2023/08/21 12:04:16;;;;;;;4.78;2.20;;;;;;;28.09;67.79;101261.64;5176938;55;1138898;-66
2023/08/21 12:09:22;;;;;;;4.67;1.82;;;;;;;27.94;69.37;101267.87;5232714;55;1138607;-66
2023/08/21 12:14:30;;;;;;;11.00;3.17;;;;;;;27.64;71.32;101256.68;5213975;55;1138910;-66
2023/08/21 12:19:36;;;;;;;3.20;2.08;;;;;;;27.64;71.32;101256.68;5086313;56;1140928;-66
2023/08/21 12:24:42;;;;;;;3.45;1.77;;;;;;;27.77;72.48;101258.00;5245279;54;1138757;-66
2023/08/21 12:29:47;;;;;;;6.72;2.20;;;;;;;27.65;70.33;101258.35;5246862;54;1138792;-66
2023/08/21 12:34:53;;;;;;;6.83;3.52;;;;;;;27.52;71.66;101253.73;5288478;54;1138734;-66
2023/08/21 12:39:58;;;;;;;4.83;2.33;;;;;;;27.60;72.76;101262.22;5146126;56;1138706;-66
2023/08/21 12:45:05;;;;;;;3.17;1.70;;;;;;;27.77;73.54;101257.16;5157895;55;1260390;-65
2023/08/21 12:50:11;;;;;;;10.90;2.58;;;;;;;27.78;71.44;101243.36;5229418;55;1138560;-67
2023/08/21 12:55:16;;;;;;;4.30;2.00;;;;;;;27.72;71.87;101239.29;5260659;54;1140751;-66
2023/08/21 13:00:22;;;;;;;6.33;3.20;;;;;;;27.67;72.28;101242.64;5231532;54;1138784;-66
2023/08/21 13:05:27;;;;;;;7.78;2.50;;;;;;;27.76;73.87;101237.82;5228427;54;1138825;-67
2023/08/21 13:10:33;;;;;;;4.72;2.47;;;;;;;28.02;72.85;101232.27;5191042;55;1138778;-66
2023/08/21 13:15:39;;;;;;;3.62;2.22;;;;;;;27.96;71.94;101235.84;5086510;55;1138677;-67
2023/08/21 13:20:45;;;;;;;8.80;4.00;;;;;;;27.83;71.69;101227.74;5035347;56;1138844;-66
2023/08/21 13:25:51;;;;;;;6.85;3.20;;;;;;;27.78;72.90;101228.93;5065732;56;1138637;-66
2023/08/21 13:30:56;;;;;;;3.35;2.20;;;;;;;27.66;72.38;101230.09;5087605;56;1138950;-66
2023/08/21 13:36:02;;;;;;;2.77;2.25;;;;;;;27.44;72.62;101232.75;5066368;54;1138622;-65
2023/08/21 13:41:09;;;;;;;3.10;2.27;;;;;;;27.37;74.33;101223.77;5049167;56;1138994;-67
2023/08/21 13:46:15;;;;;;;3.00;2.17;;;;;;;27.18;74.10;101226.85;5012678;55;1138540;-66
2023/08/21 13:51:20;;;;;;;7.35;2.40;;;;;;;27.05;75.82;101223.59;5020947;56;1138781;-67
2023/08/21 13:56:26;;;;;;;6.30;2.77;;;;;;;26.95;76.38;101219.13;5007442;56;1138459;-66
2023/08/21 14:01:31;;;;;;;9.00;2.47;;;;;;;26.89;77.26;101228.05;5044719;56;1138798;-66
2023/08/21 14:06:37;;;;;;;3.85;2.75;;;;;;;26.79;77.69;101220.34;5103851;56;1138980;-66
2023/08/21 14:11:43;;;;;;;5.92;2.45;;;;;;;26.68;78.35;101211.47;5085834;56;1138908;-68
2023/08/21 14:16:48;;;;;;;3.55;2.17;;;;;;;26.68;78.35;101211.47;4914877;58;1138677;-66
2023/08/21 14:21:55;;;;;;;7.03;3.37;;;;;;;26.60;78.48;101215.72;5118490;55;1138810;-67
2023/08/21 14:27:00;;;;;;;6.60;2.77;;;;;;;26.60;79.59;101211.66;5099595;55;1138782;-66
2023/08/21 14:32:06;;;;;;;8.18;2.42;;;;;;;26.64;79.97;101202.06;5112524;56;1138480;-66
2023/08/21 14:37:15;;;;;;;8.03;3.60;;;;;;;26.73;79.62;101202.72;5029982;56;1138800;-67
2023/08/21 14:42:19;;;;;;;5.85;2.62;;;;;;;26.82;79.43;101198.22;5057703;56;1138699;-66
2023/08/21 14:47:25;;;;;;;4.72;3.05;;;;;;;26.96;79.11;101189.05;5130870;55;1138635;-66
2023/08/21 14:52:30;;;;;;;7.85;2.70;;;;;;;27.13;77.03;101191.33;5113629;56;1138947;-66
2023/08/21 14:57:36;;;;;;;2.72;2.52;;;;;;;27.18;78.10;101186.11;5203648;55;1138764;-67
2023/08/21 15:02:42;;;;;;;6.85;2.62;;;;;;;27.35;79.01;101179.70;5200752;55;1138729;-66
2023/08/21 15:07:47;;;;;;;3.12;2.83;;;;;;;27.55;77.49;101166.88;5181326;54;1138868;-67
2023/08/21 15:12:53;;;;;;;3.12;2.47;;;;;;;27.71;77.62;101158.27;5221050;54;1138864;-66
2023/08/21 15:17:58;;;;;;;3.67;2.45;;;;;;;27.80;76.35;101173.83;5199431;54;1138630;-66
2023/08/21 15:23:04;;;;;;;5.28;3.02;;;;;;;27.91;76.79;101166.34;5200366;55;1138740;-67
2023/08/21 15:28:10;;;;;;;15.68;4.00;;;;;;;27.84;75.87;101161.45;5199645;55;1138895;-67
2023/08/21 15:33:15;;;;;;;2.80;2.60;;;;;;;27.68;76.55;101158.70;5199756;55;1140745;-67
2023/08/21 15:38:21;;;;;;;3.45;3.10;;;;;;;27.71;77.15;101152.00;5113225;55;1138811;-67
2023/08/21 15:43:27;;;;;;;6.15;2.95;;;;;;;27.76;76.55;101148.95;5113556;55;1138667;-67
2023/08/21 15:48:32;;;;;;;3.22;2.58;;;;;;;27.83;75.63;101138.03;5133699;55;1138618;-66
2023/08/21 15:53:38;;;;;;;3.12;2.40;;;;;;;27.85;76.89;101131.33;5151925;55;1138972;-66
2023/08/21 15:58:43;;;;;;;6.22;2.92;;;;;;;27.92;75.55;101138.94;5199997;54;1138753;-67
2023/08/21 16:03:49;;;;;;;3.80;2.62;;;;;;;27.93;76.21;101139.77;5214539;54;1138948;-66
2023/08/21 16:08:55;;;;;;;6.42;2.55;;;;;;;27.83;75.23;101139.39;5113886;56;1138593;-66
2023/08/21 16:14:03;;;;;;;5.30;2.87;;;;;;;27.67;74.71;101140.72;5190079;55;1138716;-66
2023/08/21 16:19:08;;;;;;;3.17;2.52;;;;;;;27.56;74.68;101137.30;5199493;54;1138880;-67
2023/08/21 16:24:14;;;;;;;3.72;2.42;;;;;;;27.57;74.31;101136.28;5219885;54;1138680;-66
2023/08/21 16:29:22;;;;;;;13.88;2.90;;;;;;;27.55;74.16;101135.09;5200447;54;1138747;-66
2023/08/21 16:34:27;;;;;;;3.90;2.22;;;;;;;27.52;72.62;101134.16;5158055;55;1140858;-67
2023/08/21 16:39:32;;;;;;;3.00;2.47;;;;;;;27.48;71.89;101135.67;5133397;56;1138914;-66
2023/08/21 16:44:38;;;;;;;5.03;1.90;;;;;;;27.47;72.01;101139.44;5113390;56;1139078;-66
2023/08/21 16:49:43;;;;;;;5.45;2.15;;;;;;;27.43;71.80;101140.06;5154619;54;1138843;-67
2023/08/21 16:54:49;;;;;;;2.67;2.02;;;;;;;27.38;71.17;101131.71;5241300;55;1139068;-66
2023/08/21 16:59:54;;;;;;;6.72;2.40;;;;;;;27.30;71.78;101134.16;5137889;54;1138814;-65
2023/08/21 17:05:00;;;;;;;4.70;2.40;;;;;;;27.12;71.54;101140.26;5222113;54;1138657;-65
2023/08/21 17:10:09;;;;;;;5.40;3.05;;;;;;;26.98;72.57;101149.48;5221474;55;1138764;-65
2023/08/21 17:15:15;;;;;;;4.95;2.77;;;;;;;26.91;72.40;101143.17;5241298;54;1138515;-67
2023/08/21 17:20:20;;;;;;;9.00;2.60;;;;;;;26.80;72.93;101147.89;5221185;54;1138833;-66
2023/08/21 17:25:26;;;;;;;4.55;2.40;;;;;;;26.77;73.20;101149.14;5221549;54;1138475;-67
2023/08/21 17:30:32;;;;;;;2.67;2.08;;;;;;;26.66;72.33;101152.50;5242084;54;1138812;-66
2023/08/21 17:35:38;;;;;;;7.05;2.40;;;;;;;26.55;72.48;101144.99;5126490;55;1138824;-64
2023/08/21 17:40:44;;;;;;;2.42;1.98;;;;;;;26.44;72.45;101151.02;5133366;56;1138871;-65
2023/08/21 17:45:50;;;;;;;6.53;2.55;;;;;;;26.38;72.84;101153.22;5186993;55;1138798;-66
2023/08/21 17:50:55;;;;;;;4.67;2.42;;;;;;;26.32;73.16;101148.09;5220968;55;1138812;-65
2023/08/21 17:56:01;;;;;;;6.15;2.17;;;;;;;26.25;73.79;101154.01;5220063;54;1138910;-68
2023/08/21 18:01:06;;;;;;;5.37;2.75;;;;;;;26.14;74.27;101155.95;5190885;55;1138983;-65
2023/08/21 18:06:12;;;;;;;7.67;2.70;;;;;;;26.08;74.67;101161.69;5210448;55;1138755;-68
2023/08/21 18:11:18;;;;;;;6.92;2.65;;;;;;;25.89;74.94;101166.52;5193502;55;1138710;-67
2023/08/21 18:16:24;;;;;;;10.75;3.10;;;;;;;25.83;76.12;101168.68;5157926;55;1138468;-68
2023/08/21 18:21:29;;;;;;;5.35;2.77;;;;;;;25.72;76.07;101170.11;5241947;54;1140623;-68
2023/08/21 18:26:35;;;;;;;5.45;3.15;;;;;;;25.55;76.75;101175.52;5112469;55;1138651;-67
2023/08/21 18:31:41;;;;;;;3.45;2.77;;;;;;;25.47;77.65;101177.05;5049516;56;1139135;-65
2023/08/21 18:36:46;;;;;;;6.92;3.08;;;;;;;25.34;77.56;101177.82;5139993;56;1138790;-67
2023/08/21 18:41:52;;;;;;;3.66;3.02;;;;;;;25.23;78.72;101190.02;5016978;56;1139011;-65
2023/08/21 18:46:59;;;;;;;13.87;4.00;;;;;;;25.11;79.15;101198.90;5044789;56;1139031;-65
2023/08/21 18:52:05;;;;;;;16.48;8.38;;;;;;;25.12;80.04;101190.58;5046789;55;1140883;-67
2023/08/21 18:57:10;;;;;;;7.30;4.35;;;;;;;25.14;80.22;101192.58;5080311;56;1140955;-67
2023/08/21 19:02:16;;;;;;;14.70;5.20;;;;;;;25.13;80.06;101199.55;5257948;54;1138830;-65
2023/08/21 19:07:22;;;;;;;10.98;4.60;;;;;;;25.08;80.52;101203.34;5276611;54;1140805;-67
2023/08/21 19:12:27;;;;;;;7.58;4.53;;;;;;;25.03;81.24;101203.13;5229399;54;1140884;-65
2023/08/21 19:17:33;;;;;;;10.53;7.55;;;;;;;24.99;81.71;101205.89;5213018;55;1139255;-67
2023/08/21 19:22:39;;;;;;;11.28;7.15;;;;;;;24.69;80.29;101212.80;5247732;54;1141024;-67
2023/08/21 19:27:44;;;;;;;17.25;9.38;;;;;;;24.58;81.35;101220.09;5180970;54;1140820;-65
2023/08/21 19:32:50;;;;;;;9.18;6.95;;;;;;;24.60;81.84;101219.86;5221654;54;1140955;-66
2023/08/21 19:37:55;;;;;;;14.13;6.67;;;;;;;24.62;82.10;101226.77;5190395;55;1138574;-66
2023/08/21 19:43:01;;;;;;;10.60;4.33;;;;;;;24.60;82.03;101219.35;5170417;55;1141208;-67
2023/08/21 19:48:06;;;;;;;8.60;4.47;;;;;;;24.54;81.86;101221.50;5240332;55;1140902;-67
2023/08/21 19:53:12;;;;;;;12.20;6.25;;;;;;;24.43;81.78;101226.08;5171000;55;1138721;-66
2023/08/21 19:58:18;;;;;;;13.58;6.78;;;;;;;24.35;81.92;101227.02;5204106;55;1140672;-67
2023/08/21 20:03:23;;;;;;;9.95;4.83;;;;;;;24.27;82.14;101224.45;5245986;55;1140854;-65
2023/08/21 20:08:30;;;;;;;12.75;5.55;;;;;;;24.20;82.24;101231.09;5278801;54;1138847;-67
2023/08/21 20:13:35;;;;;;;15.98;5.05;;;;;;;24.12;82.13;101240.67;5278432;54;1141282;-67
2023/08/21 20:18:41;;;;;;;12.60;4.75;;;;;;;24.02;82.27;101244.17;5266906;55;1141009;-66
2023/08/21 20:23:47;;;;;;;14.05;5.25;;;;;;;23.85;81.93;101246.75;5190603;55;1140959;-65
2023/08/21 20:28:52;;;;;;;13.15;6.85;;;;;;;23.77;82.49;101254.97;5211729;55;1140812;-67
2023/08/21 20:33:58;;;;;;;14.05;5.53;;;;;;;23.74;83.16;101262.09;5211396;55;1140951;-66
2023/08/21 20:39:04;;;;;;;9.33;4.40;;;;;;;23.66;82.87;101266.25;5196668;55;1140773;-65
2023/08/21 20:44:09;;;;;;;8.30;4.20;;;;;;;23.49;83.48;101269.61;5071876;56;1138977;-65
2023/08/21 20:49:15;;;;;;;5.03;3.77;;;;;;;23.48;84.52;101265.23;5220875;54;1138818;-65
2023/08/21 20:54:20;;;;;;;8.83;4.80;;;;;;;23.45;84.80;101273.69;5205377;54;1138643;-66
2023/08/21 20:59:26;;;;;;;5.92;3.52;;;;;;;23.39;85.44;101280.66;5048585;56;1138666;-66
2023/08/21 21:04:32;;;;;;;9.78;3.77;;;;;;;23.34;86.10;101277.69;5189426;55;1138889;-65
2023/08/21 21:09:38;;;;;;;14.45;4.30;;;;;;;23.27;86.41;101280.78;5171609;55;1138683;-65
2023/08/21 21:14:44;;;;;;;7.08;3.77;;;;;;;23.20;86.92;101279.84;5258357;54;1140981;-67
2023/08/21 21:19:50;;;;;;;16.42;5.03;;;;;;;23.11;87.27;101281.77;5299829;54;1138947;-67
2023/08/21 21:24:55;;;;;;;16.04;3.72;;;;;;;23.08;87.68;101279.94;5258730;54;1140615;-66
2023/08/21 21:30:01;;;;;;;7.97;3.30;;;;;;;22.98;87.30;101288.80;5258733;54;1140664;-67
2023/08/21 21:35:07;;;;;;;8.63;3.10;;;;;;;22.78;87.22;101286.58;5214764;55;1138877;-67
2023/08/21 21:40:13;;;;;;;7.78;3.40;;;;;;;22.59;87.84;101292.95;5174406;55;1138856;-65
2023/08/21 21:45:19;;;;;;;8.25;3.02;;;;;;;22.58;88.75;101289.41;5168890;55;1138573;-66
2023/08/21 21:50:24;;;;;;;12.35;4.00;;;;;;;22.57;89.13;101291.77;5169997;55;1138906;-66
2023/08/21 21:55:30;;;;;;;9.93;3.80;;;;;;;22.55;89.46;101290.27;5189657;55;1140612;-67
2023/08/21 22:00:35;;;;;;;8.28;4.37;;;;;;;22.52;89.57;101292.80;5168406;55;1138705;-65
2023/08/21 22:05:41;;;;;;;10.00;4.03;;;;;;;22.51;90.14;101287.08;5169607;55;1138668;-66
2023/08/21 22:10:47;;;;;;;24.07;5.05;;;;;;;22.40;89.69;101286.14;5247066;55;1140518;-67
2023/08/21 22:15:52;;;;;;;14.07;4.58;;;;;;;22.28;90.08;101286.22;5258582;54;1141063;-66
2023/08/21 22:20:58;;;;;;;11.83;4.40;;;;;;;22.21;90.28;101283.38;5258507;54;1140671;-67
2023/08/21 22:26:04;;;;;;;8.68;5.40;;;;;;;22.16;90.80;101279.02;5279206;54;1140597;-67
2023/08/21 22:31:09;;;;;;;5.83;3.30;;;;;;;22.13;90.82;101284.78;5258201;54;1139021;-64
2023/08/21 22:36:15;;;;;;;6.42;3.37;;;;;;;22.02;90.86;101283.28;5190194;55;1138800;-65
2023/08/21 22:41:20;;;;;;;7.55;4.22;;;;;;;21.96;91.34;101274.55;5189677;55;1138697;-67
2023/08/21 22:46:26;;;;;;;6.40;3.42;;;;;;;21.86;91.09;101281.13;5169281;56;1138690;-67
2023/08/21 22:51:32;;;;;;;9.78;3.58;;;;;;;21.80;91.23;101280.50;5169380;55;1138862;-65
2023/08/21 22:56:37;;;;;;;15.15;3.85;;;;;;;21.57;91.14;101283.06;5188760;55;1139044;-68
2023/08/21 23:01:43;;;;;;;6.85;3.95;;;;;;;21.36;91.25;101275.05;5169456;55;1141009;-68